New Bedford Regional Airport New Bedford US
ICAO: KEWB
IATA: EWB
Category: Medium
Scheduled Services: Yes

Elevation: 80 ft
TransAlt. 18000 ft.

Airport Communications:
PROVIDENCE APP/DEP:128.7
ATIS:126.85
CTAF:118.1
GND:121.9
TWR:118.1
UNICOM:122.95

KEWB Zoom In..

Runways:

(A) RW 05 length 4997 ft width 150 ft
ILS 109.70 / hdg 54

(B) RW 14 length 5000 ft width 150 ft
---- / hdg 144

(C) RW 23 length 4997 ft width 150 ft
---- / hdg 234

(D) RW 32 length 5000 ft width 150 ft
---- / hdg 324

Location; KEWB
Day. 19 / Time. 20.53 Zulu
* Altimeter: 30.06
* Temperature: 26° c. 78.8°f.
* Wind from: 180° Speed 07 kn.
Dewpoint: 13° c.
Visibility: 10 Statute Miles.
Clouds: Clear (automated report).

KEWB 192053Z 18007KT 10SM CLR 26/13 A3006 RMK AO2 SLP180 T02610128 55004


Wind From 180°
Speed 07 kn.

 
 
jpsmedia.com for Web Design worldairports.se 2018   terms of use